Terminal Aerodrome Forecast
Issued by NWS

Current Version | Previous Version | Graphics & Text | Print | Product List | Glossary On
Versions: 1 2 3 4 5 6 7 8 9 10 11 12 13 14 15 16 17 18 19 20 21 22 23 24 25 26
000
FTUS41 KILN 262337
TAFLUK
TAF
KLUK 262337Z 2700/2724 27007KT P6SM SCT250
     FM270400 23004KT P6SM SKC
     FM271300 24010G16KT P6SM SKC
     FM271800 24012G18KT P6SM FEW050=

USA.gov is the U.S. government's official web portal to all federal, state and local government web resources and services.